Time;durP1;ratioP1;P1;durP2;ratioP2;P2;SDS_P1;SDS_P2;PMS_P1;PMS_P2;Temp;Humidity;BMP_temperature;BMP_pressure;BME280_temperature;BME280_humidity;BME280_pressure;Samples;Min_cycle;Max_cycle;Signal;HPM_P1;HPM_P2
2022/04/13 00:00:40;;;;;;;5.63;4.30;;;12.30;92.20;;;;;;5045088;28;20841;-48
2022/04/13 00:03:08;;;;;;;12.47;4.87;;;12.40;91.90;;;;;;5044634;28;20489;-48
2022/04/13 00:05:35;;;;;;;6.07;3.80;;;12.40;91.90;;;;;;5050521;28;20501;-48
2022/04/13 00:08:06;;;;;;;9.23;4.70;;;12.40;91.80;;;;;;5058938;28;20476;-48
2022/04/13 00:10:33;;;;;;;5.10;4.60;;;12.50;91.60;;;;;;5045951;28;20481;-48
2022/04/13 00:12:59;;;;;;;11.03;5.00;;;12.50;91.50;;;;;;5040030;28;20499;-48
2022/04/13 00:15:26;;;;;;;5.70;3.90;;;12.50;91.60;;;;;;5043448;28;20826;-48
2022/04/13 00:17:53;;;;;;;4.77;3.40;;;12.60;91.50;;;;;;5040651;28;20510;-50
2022/04/13 00:20:22;;;;;;;7.47;4.90;;;12.60;91.60;;;;;;5044734;28;20476;-48
2022/04/13 00:22:49;;;;;;;5.27;4.20;;;12.50;91.60;;;;;;5034246;28;20799;-48
2022/04/13 00:25:16;;;;;;;22.60;6.20;;;12.30;92.10;;;;;;5042335;28;20535;-48
2022/04/13 00:27:42;;;;;;;4.83;4.27;;;12.10;92.20;;;;;;5047457;28;20970;-48
2022/04/13 00:30:10;;;;;;;6.33;4.50;;;12.00;92.90;;;;;;5042799;28;20484;-48
2022/04/13 00:32:37;;;;;;;18.03;5.07;;;12.00;92.90;;;;;;5039715;28;20507;-48
2022/04/13 00:35:04;;;;;;;5.37;4.83;;;12.00;92.90;;;;;;5039575;28;21240;-48
2022/04/13 00:37:33;;;;;;;6.80;4.30;;;12.10;92.50;;;;;;5045660;28;21016;-48
2022/04/13 00:40:00;;;;;;;12.87;4.63;;;12.10;92.30;;;;;;5039867;28;20490;-48
2022/04/13 00:42:28;;;;;;;7.77;4.77;;;12.20;92.40;;;;;;5042354;28;20488;-48
2022/04/13 00:44:55;;;;;;;4.40;4.03;;;12.20;92.30;;;;;;5068566;28;20483;-49
2022/04/13 00:47:22;;;;;;;12.50;5.03;;;12.20;92.20;;;;;;5046264;28;20491;-48
2022/04/13 00:49:48;;;;;;;5.07;4.37;;;12.20;92.00;;;;;;5047062;28;20484;-48
2022/04/13 00:52:19;;;;;;;7.40;4.87;;;12.30;92.10;;;;;;5059880;28;20509;-48
2022/04/13 00:54:49;;;;;;;13.03;5.10;;;12.30;92.00;;;;;;5042261;28;21030;-48
2022/04/13 00:57:18;;;;;;;5.43;4.63;;;12.10;92.40;;;;;;5045212;28;20472;-48
2022/04/13 00:59:47;;;;;;;3.77;3.30;;;;;;;;;;5046956;28;20579;-48
2022/04/13 01:02:14;;;;;;;5.10;3.60;;;12.00;92.30;;;;;;5034848;28;20486;-48
2022/04/13 01:04:42;;;;;;;3.90;3.50;;;12.00;92.10;;;;;;5049627;28;20485;-48
2022/04/13 01:07:10;;;;;;;6.30;4.40;;;12.00;92.10;;;;;;5042840;28;20494;-49
2022/04/13 01:09:38;;;;;;;5.10;4.60;;;12.00;92.10;;;;;;5043580;28;20494;-48
2022/04/13 01:12:07;;;;;;;4.40;4.00;;;12.00;92.10;;;;;;5046050;28;20487;-48
2022/04/13 01:14:35;;;;;;;23.53;5.83;;;11.90;93.10;;;;;;5040206;28;20491;-48
2022/04/13 01:17:02;;;;;;;5.90;5.03;;;11.80;93.60;;;;;;5028610;28;20517;-48
2022/04/13 01:19:29;;;;;;;10.40;5.40;;;11.70;93.80;;;;;;5022053;28;20577;-50
2022/04/13 01:22:02;;;;;;;7.87;6.00;;;11.60;94.00;;;;;;5024927;28;20492;-48
2022/04/13 01:24:32;;;;;;;8.50;5.63;;;11.70;93.60;;;;;;5026140;28;20483;-48
2022/04/13 01:26:59;;;;;;;5.93;4.87;;;11.80;93.10;;;;;;5019983;28;20502;-48
2022/04/13 01:29:25;;;;;;;11.00;4.20;;;11.70;92.20;;;;;;5021101;28;21170;-48
2022/04/13 01:31:54;;;;;;;7.60;4.70;;;11.60;92.20;;;;;;5018204;28;20472;-48
2022/04/13 01:34:21;;;;;;;5.97;4.47;;;11.70;92.10;;;;;;5022577;28;20478;-48
2022/04/13 01:36:48;;;;;;;15.00;4.60;;;11.70;92.10;;;;;;5018379;28;20480;-48
2022/04/13 01:39:15;;;;;;;8.90;5.10;;;11.70;92.30;;;;;;5020590;28;20490;-48
2022/04/13 01:41:43;;;;;;;7.10;5.37;;;11.60;92.40;;;;;;5016611;28;21325;-48
2022/04/13 01:44:10;;;;;;;12.53;5.90;;;11.40;92.70;;;;;;5012446;28;20490;-48
2022/04/13 01:46:36;;;;;;;9.60;5.27;;;11.30;92.60;;;;;;5019741;28;20532;-49
2022/04/13 01:49:03;;;;;;;8.40;5.73;;;11.40;92.50;;;;;;5019992;28;20486;-48
2022/04/13 01:51:30;;;;;;;11.60;5.47;;;11.40;92.20;;;;;;5015424;28;20581;-48
2022/04/13 01:53:57;;;;;;;7.97;5.73;;;11.40;92.10;;;;;;5017338;28;21202;-48
2022/04/13 01:56:23;;;;;;;5.97;5.00;;;11.30;92.10;;;;;;5018594;28;20864;-48
2022/04/13 01:58:52;;;;;;;11.80;5.90;;;11.40;92.00;;;;;;5020482;28;21204;-48
2022/04/13 02:01:19;;;;;;;5.53;4.93;;;11.40;92.00;;;;;;5013772;28;20484;-48
2022/04/13 02:03:45;;;;;;;6.13;4.53;;;11.30;92.00;;;;;;5024699;28;20482;-48
2022/04/13 02:06:14;;;;;;;9.83;5.63;;;11.30;92.00;;;;;;5017236;28;21048;-48
2022/04/13 02:08:41;;;;;;;5.97;3.70;;;11.30;91.90;;;;;;5011659;28;20887;-48
2022/04/13 02:11:08;;;;;;;5.33;4.50;;;11.30;91.80;;;;;;5024302;28;20503;-48
2022/04/13 02:13:34;;;;;;;10.83;4.70;;;11.20;91.80;;;;;;5019680;28;20499;-48
2022/04/13 02:16:02;;;;;;;7.33;5.73;;;11.20;91.90;;;;;;5027343;28;20893;-48
2022/04/13 02:18:29;;;;;;;8.60;6.63;;;11.10;91.80;;;;;;5045013;28;20709;-48
2022/04/13 02:20:56;;;;;;;6.97;5.23;;;11.10;92.00;;;;;;5017098;28;20482;-48
2022/04/13 02:23:23;;;;;;;7.73;5.27;;;10.80;92.10;;;;;;5016185;28;20665;-48
2022/04/13 02:25:49;;;;;;;7.80;6.00;;;10.50;92.20;;;;;;5033988;28;20650;-47
2022/04/13 02:28:16;;;;;;;13.00;5.00;;;10.20;92.80;;;;;;5028606;28;20486;-48
2022/04/13 02:30:43;;;;;;;8.27;4.70;;;10.00;92.90;;;;;;5039251;28;20490;-48
2022/04/13 02:33:11;;;;;;;5.60;4.53;;;9.90;93.80;;;;;;5041397;28;20481;-48
2022/04/13 02:35:38;;;;;;;11.13;4.90;;;10.00;93.10;;;;;;5041301;28;20493;-48
2022/04/13 02:38:04;;;;;;;8.47;4.60;;;10.20;92.80;;;;;;5032258;28;20537;-48
2022/04/13 02:40:31;;;;;;;5.73;4.53;;;10.20;92.90;;;;;;5052748;28;20485;-48
2022/04/13 02:42:58;;;;;;;12.20;5.30;;;10.30;92.80;;;;;;5031809;28;20983;-48
2022/04/13 02:45:24;;;;;;;7.47;5.87;;;10.40;92.60;;;;;;5051500;28;20606;-48
2022/04/13 02:47:51;;;;;;;6.20;5.57;;;10.50;92.50;;;;;;5041280;28;20485;-48
2022/04/13 02:50:19;;;;;;;8.90;4.80;;;10.50;92.20;;;;;;5042975;28;20989;-48
2022/04/13 02:52:46;;;;;;;6.20;5.13;;;10.60;92.20;;;;;;5036127;28;20480;-49
2022/04/13 02:55:13;;;;;;;6.60;5.03;;;10.60;92.30;;;;;;5031663;28;20574;-48
2022/04/13 02:57:40;;;;;;;9.00;6.33;;;10.60;92.50;;;;;;5041443;28;20884;-47
2022/04/13 03:00:08;;;;;;;10.97;5.97;;;10.60;92.50;;;;;;5022473;28;20482;-47
2022/04/13 03:02:34;;;;;;;7.47;5.40;;;10.60;92.60;;;;;;5017578;28;20634;-48
2022/04/13 03:05:01;;;;;;;9.63;4.67;;;10.60;92.40;;;;;;5017878;28;20499;-48
2022/04/13 03:07:32;;;;;;;4.80;4.30;;;10.60;92.20;;;;;;5022448;28;20499;-48
2022/04/13 03:09:59;;;;;;;8.27;4.80;;;10.60;92.10;;;;;;5012010;28;21063;-48
2022/04/13 03:12:25;;;;;;;6.50;4.67;;;10.70;92.00;;;;;;5045154;28;20500;-47
2022/04/13 03:14:52;;;;;;;5.97;4.60;;;10.70;91.90;;;;;;5037560;28;20498;-48
2022/04/13 03:17:19;;;;;;;6.33;4.80;;;;;;;;;;5021061;28;20477;-48
2022/04/13 03:19:46;;;;;;;8.73;4.60;;;10.60;92.30;;;;;;5014261;28;20478;-48
2022/04/13 03:22:12;;;;;;;8.80;5.50;;;10.70;92.30;;;;;;5028250;28;20483;-48
2022/04/13 03:24:40;;;;;;;5.77;4.60;;;10.70;92.20;;;;;;5048895;28;20486;-48
2022/04/13 03:27:07;;;;;;;8.03;5.93;;;10.70;92.40;;;;;;5042088;28;21115;-48
2022/04/13 03:29:34;;;;;;;7.60;5.33;;;10.70;92.60;;;;;;5004167;28;20920;-48
2022/04/13 03:32:01;;;;;;;7.50;5.87;;;;;;;;;;5032463;28;20779;-48
2022/04/13 03:34:29;;;;;;;7.83;5.10;;;10.70;92.70;;;;;;5011705;28;20851;-48
2022/04/13 03:36:57;;;;;;;19.60;5.70;;;10.70;92.50;;;;;;5081561;28;20487;-48
2022/04/13 03:39:24;;;;;;;5.97;5.00;;;10.60;92.10;;;;;;5037167;28;20486;-48
2022/04/13 03:41:53;;;;;;;6.07;4.40;;;10.60;92.00;;;;;;5054080;28;20483;-47
2022/04/13 03:44:19;;;;;;;7.03;4.60;;;10.60;92.00;;;;;;5043228;28;20524;-48
2022/04/13 03:46:47;;;;;;;14.53;6.57;;;10.50;92.00;;;;;;5037948;28;20490;-48
2022/04/13 03:49:14;;;;;;;5.10;4.17;;;10.50;92.00;;;;;;5037032;28;21088;-48
2022/04/13 03:51:41;;;;;;;6.63;4.60;;;10.50;91.90;;;;;;5039687;28;20699;-47
2022/04/13 03:54:08;;;;;;;8.17;4.67;;;10.60;92.00;;;;;;5023266;28;20932;-47
2022/04/13 03:56:36;;;;;;;7.00;4.67;;;10.60;92.00;;;;;;5041904;28;20484;-48
2022/04/13 03:59:04;;;;;;;5.30;4.53;;;10.60;92.10;;;;;;5033270;28;20477;-47
2022/04/13 04:01:31;;;;;;;22.67;5.97;;;10.60;92.40;;;;;;5052677;28;20493;-48
2022/04/13 04:03:58;;;;;;;8.67;4.70;;;10.50;92.20;;;;;;5043850;28;20891;-48
2022/04/13 04:06:25;;;;;;;5.23;4.53;;;10.40;92.00;;;;;;5050592;28;20530;-48
2022/04/13 04:08:52;;;;;;;18.33;4.90;;;10.40;91.80;;;;;;5058548;28;20488;-48
2022/04/13 04:11:18;;;;;;;10.90;4.90;;;10.40;91.70;;;;;;5023588;28;20578;-48
2022/04/13 04:13:45;;;;;;;5.33;4.80;;;10.40;91.80;;;;;;5042251;28;20485;-47
2022/04/13 04:16:13;;;;;;;6.97;4.40;;;10.30;92.10;;;;;;5037122;28;20520;-47
2022/04/13 04:18:40;;;;;;;7.50;4.37;;;10.30;92.10;;;;;;5049490;28;20473;-48
2022/04/13 04:21:07;;;;;;;7.47;4.13;;;10.20;92.20;;;;;;5046475;28;20840;-48
2022/04/13 04:23:33;;;;;;;8.77;5.03;;;10.10;93.00;;;;;;5047405;28;20987;-48
2022/04/13 04:26:01;;;;;;;5.50;4.70;;;10.00;93.50;;;;;;5035395;28;20872;-48
2022/04/13 04:28:28;;;;;;;6.47;4.73;;;10.00;93.60;;;;;;5042681;28;20488;-48
2022/04/13 04:30:55;;;;;;;18.73;5.87;;;10.00;93.80;;;;;;5065130;28;20498;-48
2022/04/13 04:33:24;;;;;;;12.70;5.60;;;10.00;93.80;;;;;;5050716;28;20668;-49
2022/04/13 04:35:51;;;;;;;5.57;4.47;;;10.10;93.50;;;;;;5034162;28;20617;-49
2022/04/13 04:38:18;;;;;;;8.40;5.10;;;10.20;93.60;;;;;;5048196;28;20495;-51
2022/04/13 04:40:45;;;;;;;7.40;5.90;;;10.20;93.60;;;;;;5044823;28;21236;-49
2022/04/13 04:43:11;;;;;;;10.00;6.00;;;10.30;93.60;;;;;;5056337;28;20468;-48
2022/04/13 04:45:38;;;;;;;6.27;3.83;;;10.30;93.30;;;;;;5026637;28;20968;-49
2022/04/13 04:48:06;;;;;;;4.10;3.60;;;10.30;93.20;;;;;;5019485;28;20492;-48
2022/04/13 04:50:34;;;;;;;4.83;3.73;;;10.20;93.30;;;;;;5020997;28;20489;-48
2022/04/13 04:53:01;;;;;;;9.00;3.87;;;10.10;93.50;;;;;;5019094;28;20986;-48
2022/04/13 04:55:28;;;;;;;5.97;4.50;;;10.10;93.70;;;;;;5015061;28;20516;-49
2022/04/13 04:57:55;;;;;;;6.43;4.90;;;10.00;94.60;;;;;;5019032;28;20486;-48
2022/04/13 05:00:22;;;;;;;17.03;5.97;;;9.90;95.30;;;;;;5025164;28;21077;-49
2022/04/13 05:02:49;;;;;;;5.80;4.70;;;10.00;94.40;;;;;;5020477;28;20478;-48
2022/04/13 05:05:16;;;;;;;7.67;5.33;;;10.10;94.40;;;;;;5012081;28;20558;-47
2022/04/13 05:07:44;;;;;;;12.90;5.50;;;10.20;94.20;;;;;;5017468;28;20483;-47
2022/04/13 05:10:12;;;;;;;9.00;6.00;;;10.30;94.10;;;;;;5030305;28;20543;-47
2022/04/13 05:12:44;;;;;;;6.03;5.03;;;10.40;93.80;;;;;;5051935;28;20530;-47
2022/04/13 05:15:12;;;;;;;10.20;6.17;;;10.50;93.70;;;;;;5017921;28;20595;-47
2022/04/13 05:17:38;;;;;;;8.40;5.17;;;10.50;93.50;;;;;;5033923;28;20489;-46
2022/04/13 05:20:07;;;;;;;6.53;5.70;;;10.60;93.70;;;;;;5020917;28;20525;-47
2022/04/13 05:22:34;;;;;;;8.80;5.00;;;10.60;93.70;;;;;;5021870;28;20569;-47
2022/04/13 05:25:12;;;;;;;10.33;6.70;;;10.60;93.80;;;;;;5019540;28;20487;-47
2022/04/13 05:27:39;;;;;;;16.17;10.07;;;10.70;94.00;;;;;;5034491;28;20514;-47
2022/04/13 05:30:08;;;;;;;16.90;7.80;;;10.70;94.20;;;;;;5020067;28;20482;-47
2022/04/13 05:32:46;;;;;;;7.17;4.47;;;;;;;;;;5017813;28;20493;-47
2022/04/13 05:35:12;;;;;;;11.70;5.27;;;10.40;94.50;;;;;;5035338;28;20485;-47
2022/04/13 05:37:39;;;;;;;6.03;5.13;;;10.40;94.80;;;;;;5044146;28;20497;-47
2022/04/13 05:40:08;;;;;;;7.13;5.40;;;10.40;94.70;;;;;;5023355;28;20494;-47
2022/04/13 05:42:35;;;;;;;6.77;5.37;;;10.50;94.80;;;;;;5015399;28;20496;-48
2022/04/13 05:45:02;;;;;;;5.60;5.00;;;10.50;94.60;;;;;;5012110;28;21204;-47
2022/04/13 05:47:29;;;;;;;7.30;5.20;;;10.60;94.90;;;;;;5025986;28;20559;-47
2022/04/13 05:49:55;;;;;;;7.90;6.67;;;10.50;95.30;;;;;;5019347;28;21750;-47
2022/04/13 05:52:22;;;;;;;6.20;5.60;;;10.50;95.40;;;;;;5008977;28;20485;-47
2022/04/13 05:54:49;;;;;;;11.40;6.73;;;10.40;95.70;;;;;;5047909;28;20499;-47
2022/04/13 05:57:17;;;;;;;10.17;6.87;;;10.40;96.00;;;;;;5040606;28;21719;-47
2022/04/13 05:59:44;;;;;;;9.00;6.17;;;10.40;96.10;;;;;;5019686;28;20542;-48
2022/04/13 06:02:10;;;;;;;9.20;6.17;;;10.50;96.20;;;;;;5020582;28;21196;-47
2022/04/13 06:04:37;;;;;;;9.43;6.17;;;10.60;96.20;;;;;;5057032;28;20559;-47
2022/04/13 06:07:04;;;;;;;9.27;6.50;;;10.60;96.30;;;;;;5037307;28;20582;-47
2022/04/13 06:09:31;;;;;;;7.60;6.50;;;10.80;96.60;;;;;;5026161;28;20495;-48
2022/04/13 06:11:59;;;;;;;6.00;5.43;;;11.00;96.50;;;;;;5021320;28;20481;-48
2022/04/13 06:14:27;;;;;;;6.23;5.13;;;11.10;96.60;;;;;;5040667;28;20486;-47
2022/04/13 06:16:54;;;;;;;8.20;6.20;;;11.10;97.00;;;;;;5042375;28;20512;-47
2022/04/13 06:19:20;;;;;;;7.80;6.50;;;11.30;96.50;;;;;;5043752;28;20481;-48
2022/04/13 06:21:47;;;;;;;9.50;7.13;;;11.50;96.30;;;;;;5030276;28;20497;-47
2022/04/13 06:24:14;;;;;;;8.53;6.07;;;12.00;96.40;;;;;;5047625;28;20484;-48
2022/04/13 06:26:41;;;;;;;9.93;6.10;;;12.20;96.40;;;;;;5051061;28;20495;-47
2022/04/13 06:29:07;;;;;;;7.10;6.13;;;12.60;96.10;;;;;;5037004;28;20974;-47
2022/04/13 06:31:35;;;;;;;6.17;5.33;;;13.10;95.30;;;;;;5053441;28;20488;-48
2022/04/13 06:34:02;;;;;;;8.63;4.90;;;13.40;94.90;;;;;;5060486;28;20480;-47
2022/04/13 06:36:29;;;;;;;6.07;5.47;;;13.40;95.00;;;;;;5053079;28;21009;-47
2022/04/13 06:38:56;;;;;;;13.33;5.40;;;14.00;93.70;;;;;;5046084;28;20508;-47
2022/04/13 06:41:22;;;;;;;9.37;5.10;;;14.30;94.10;;;;;;5024636;28;20488;-47
2022/04/13 06:43:52;;;;;;;6.20;5.40;;;14.40;94.30;;;;;;5011095;28;20479;-47
2022/04/13 06:46:18;;;;;;;12.93;5.63;;;15.00;93.80;;;;;;5054215;28;20487;-48
2022/04/13 06:48:47;;;;;;;26.70;6.20;;;15.50;93.20;;;;;;5055486;28;20487;-47
2022/04/13 06:51:14;;;;;;;8.50;6.00;;;15.70;92.90;;;;;;5023062;28;20505;-47
2022/04/13 06:53:40;;;;;;;7.93;5.50;;;16.10;92.10;;;;;;5022615;28;20697;-47
2022/04/13 06:56:07;;;;;;;5.90;5.00;;;16.40;92.10;;;;;;5021561;28;20474;-47
2022/04/13 06:58:34;;;;;;;7.10;4.97;;;16.50;92.10;;;;;;5021602;28;21079;-47
2022/04/13 07:01:00;;;;;;;6.90;5.20;;;16.80;92.20;;;;;;5023580;28;20977;-47
2022/04/13 07:03:27;;;;;;;6.77;6.10;;;17.30;91.00;;;;;;5022767;28;20483;-47
2022/04/13 07:05:55;;;;;;;9.33;5.60;;;17.70;90.70;;;;;;5021314;28;20482;-47
2022/04/13 07:08:22;;;;;;;10.80;6.23;;;18.10;90.60;;;;;;5019442;28;20537;-47
2022/04/13 07:10:49;;;;;;;11.50;6.50;;;18.10;90.80;;;;;;5021863;28;20498;-47
2022/04/13 07:13:16;;;;;;;7.20;5.97;;;18.40;90.50;;;;;;5022079;28;21134;-47
2022/04/13 07:15:43;;;;;;;8.30;5.53;;;18.70;88.20;;;;;;5020998;28;20555;-47
2022/04/13 07:18:10;;;;;;;11.80;7.00;;;18.80;88.60;;;;;;5021128;28;20852;-47
2022/04/13 07:20:37;;;;;;;10.43;5.80;;;18.50;84.80;;;;;;5016842;28;21417;-47
2022/04/13 07:23:05;;;;;;;6.47;4.60;;;18.30;85.90;;;;;;5026729;28;20535;-47
2022/04/13 07:25:32;;;;;;;9.20;5.60;;;18.10;87.70;;;;;;5032533;28;21362;-47
2022/04/13 07:27:59;;;;;;;8.03;4.17;;;18.10;85.90;;;;;;5020984;28;20535;-47
2022/04/13 07:30:25;;;;;;;8.37;3.83;;;17.90;83.70;;;;;;5021715;28;20485;-47
2022/04/13 07:32:55;;;;;;;9.13;3.90;;;18.00;86.20;;;;;;5014705;28;20492;-47
2022/04/13 07:35:21;;;;;;;6.53;4.10;;;18.00;84.80;;;;;;5032409;28;20487;-48
2022/04/13 07:37:49;;;;;;;5.27;3.57;;;18.20;85.40;;;;;;5017792;28;20917;-47
2022/04/13 07:40:17;;;;;;;6.80;3.20;;;18.20;84.80;;;;;;5022471;28;20485;-47
2022/04/13 07:42:44;;;;;;;5.47;3.93;;;18.30;86.80;;;;;;5020846;28;20484;-47
2022/04/13 07:45:11;;;;;;;8.23;4.17;;;18.70;88.30;;;;;;5029125;28;20499;-48
2022/04/13 07:47:38;;;;;;;4.57;3.90;;;19.00;88.50;;;;;;5050333;28;20482;-48
2022/04/13 07:50:06;;;;;;;7.27;4.40;;;19.30;89.30;;;;;;5054794;28;20826;-47
2022/04/13 07:52:34;;;;;;;4.97;3.87;;;19.70;86.20;;;;;;5044388;28;20492;-47
2022/04/13 07:55:00;;;;;;;6.10;3.10;;;19.90;83.30;;;;;;5017681;28;20576;-47
2022/04/13 07:57:28;;;;;;;3.33;2.90;;;20.10;82.70;;;;;;5015705;28;20480;-48
2022/04/13 07:59:55;;;;;;;14.53;4.30;;;20.40;83.90;;;;;;5023183;28;20493;-47
2022/04/13 08:02:22;;;;;;;6.83;3.37;;;20.40;81.00;;;;;;5041477;28;20523;-47
2022/04/13 08:04:49;;;;;;;5.47;2.73;;;20.50;79.60;;;;;;5019331;28;20485;-47
2022/04/13 08:07:16;;;;;;;8.33;3.03;;;20.70;78.80;;;;;;5030041;28;20508;-48
2022/04/13 08:09:43;;;;;;;10.40;2.90;;;20.80;79.00;;;;;;5040061;28;20527;-48
2022/04/13 08:12:10;;;;;;;3.97;3.57;;;20.90;77.40;;;;;;5040981;28;20476;-47
2022/04/13 08:14:39;;;;;;;9.93;3.33;;;20.80;76.80;;;;;;5052637;28;20513;-47
2022/04/13 08:17:06;;;;;;;10.63;2.73;;;21.00;78.00;;;;;;5055134;28;21244;-47
2022/04/13 08:19:33;;;;;;;6.70;2.50;;;20.90;72.10;;;;;;5056796;28;20478;-48
2022/04/13 08:22:00;;;;;;;11.23;2.50;;;20.50;70.30;;;;;;5046861;28;20478;-47
2022/04/13 08:24:26;;;;;;;5.73;2.67;;;20.40;71.60;;;;;;5051022;28;20483;-48
2022/04/13 08:26:53;;;;;;;3.53;2.17;;;20.30;69.60;;;;;;5052069;28;20476;-47
2022/04/13 08:29:20;;;;;;;6.80;2.50;;;20.30;69.00;;;;;;5050397;28;20891;-47
2022/04/13 08:31:48;;;;;;;5.70;2.83;;;20.30;68.20;;;;;;5021062;28;20576;-48
2022/04/13 08:34:14;;;;;;;3.80;2.43;;;20.20;67.80;;;;;;5018592;28;20488;-48
2022/04/13 08:36:41;;;;;;;9.20;2.40;;;20.20;70.80;;;;;;5015642;28;20812;-48
2022/04/13 08:39:13;;;;;;;2.90;2.30;;;20.30;66.10;;;;;;5019733;28;20483;-47
2022/04/13 08:41:47;;;;;;;4.33;1.43;;;20.40;70.10;;;;;;5020796;28;20475;-48
2022/04/13 08:44:17;;;;;;;7.47;2.23;;;20.60;66.30;;;;;;5032868;28;20573;-48
2022/04/13 08:46:45;;;;;;;10.63;3.10;;;20.50;67.40;;;;;;5066416;28;20480;-48
2022/04/13 08:49:15;;;;;;;6.70;2.87;;;20.60;66.90;;;;;;5063641;28;20574;-47
2022/04/13 08:51:42;;;;;;;4.93;2.23;;;20.80;68.20;;;;;;5051474;28;20494;-47
2022/04/13 08:54:14;;;;;;;9.80;4.20;;;21.00;67.50;;;;;;5040025;28;20507;-47
2022/04/13 08:56:44;;;;;;;9.03;2.77;;;21.20;67.70;;;;;;5043178;28;20528;-48
2022/04/13 08:59:22;;;;;;;9.53;2.30;;;21.40;66.40;;;;;;5030850;28;20553;-47
2022/04/13 09:01:57;;;;;;;8.33;2.23;;;21.70;70.50;;;;;;5039682;28;20494;-48
2022/04/13 09:04:28;;;;;;;4.63;2.63;;;21.90;69.80;;;;;;5046892;28;20482;-48
2022/04/13 09:06:56;;;;;;;6.60;2.40;;;22.00;68.90;;;;;;5059753;28;20473;-47
2022/04/13 09:09:31;;;;;;;7.23;2.93;;;21.80;68.00;;;;;;5054400;28;20568;-48
2022/04/13 09:11:58;;;;;;;3.13;2.00;;;21.60;66.00;;;;;;5042408;28;20482;-47
2022/04/13 09:14:28;;;;;;;13.50;2.90;;;21.70;65.90;;;;;;5039403;28;20499;-49
2022/04/13 09:16:56;;;;;;;3.60;2.17;;;21.90;71.20;;;;;;5057210;28;20478;-47
2022/04/13 09:19:26;;;;;;;5.87;1.70;;;22.20;70.90;;;;;;5044190;28;20840;-47
2022/04/13 09:21:53;;;;;;;11.80;3.10;;;22.30;66.30;;;;;;5018512;28;20484;-48
2022/04/13 09:24:20;;;;;;;8.70;3.13;;;22.20;66.00;;;;;;5014815;28;20913;-48
2022/04/13 09:26:47;;;;;;;3.30;1.97;;;22.00;65.20;;;;;;5013051;28;20486;-48
2022/04/13 09:29:14;;;;;;;12.67;2.97;;;21.90;66.00;;;;;;5042565;28;20605;-47
2022/04/13 09:31:41;;;;;;;4.43;2.27;;;21.80;66.70;;;;;;5023655;28;20471;-47
2022/04/13 09:34:08;;;;;;;4.87;3.30;;;21.60;67.20;;;;;;5019208;28;20487;-47
2022/04/13 09:36:37;;;;;;;10.77;2.90;;;21.70;67.90;;;;;;5024079;28;20487;-47
2022/04/13 09:39:03;;;;;;;7.60;2.60;;;21.80;69.20;;;;;;5021398;28;20485;-47
2022/04/13 09:41:34;;;;;;;8.50;2.20;;;21.80;67.50;;;;;;5049815;28;20481;-48
2022/04/13 09:44:00;;;;;;;13.63;2.90;;;21.80;67.20;;;;;;5031173;28;21008;-47
2022/04/13 09:46:29;;;;;;;4.87;2.13;;;21.90;67.10;;;;;;5014125;28;20485;-47
2022/04/13 09:49:11;;;;;;;3.50;2.20;;;22.10;68.60;;;;;;5018530;28;20577;-47
2022/04/13 09:51:41;;;;;;;6.00;2.63;;;22.40;70.40;;;;;;5018527;28;20478;-48
2022/04/13 09:54:09;;;;;;;6.50;2.43;;;22.50;67.40;;;;;;5035988;28;20503;-47
2022/04/13 09:56:38;;;;;;;10.30;2.40;;;22.90;68.50;;;;;;5044020;28;20482;-48
2022/04/13 09:59:06;;;;;;;10.17;3.33;;;22.80;65.80;;;;;;5055832;28;20504;-47
2022/04/13 10:01:34;;;;;;;6.00;2.40;;;;;;;;;;5048062;28;20521;-48
2022/04/13 10:04:03;;;;;;;7.07;2.93;;;22.50;66.70;;;;;;5055036;28;20572;-47
2022/04/13 10:06:30;;;;;;;4.80;2.53;;;22.30;68.90;;;;;;5039199;28;20581;-48
2022/04/13 10:09:06;;;;;;;6.73;3.00;;;22.40;70.30;;;;;;5045745;28;20481;-48
2022/04/13 10:11:32;;;;;;;3.60;3.10;;;22.60;70.10;;;;;;5043433;28;20452;-48
2022/04/13 10:14:03;;;;;;;9.07;2.90;;;22.70;69.00;;;;;;5029770;28;20882;-47
2022/04/13 10:16:33;;;;;;;8.53;3.20;;;22.80;70.60;;;;;;5035065;28;20601;-48
2022/04/13 10:19:01;;;;;;;3.60;2.53;;;23.00;71.10;;;;;;5020758;28;20499;-47
2022/04/13 10:21:36;;;;;;;4.60;2.50;;;23.00;69.70;;;;;;5027957;28;20499;-48
2022/04/13 10:24:05;;;;;;;5.03;2.87;;;23.10;70.70;;;;;;5043593;28;20489;-47
2022/04/13 10:26:32;;;;;;;6.07;2.77;;;23.00;69.30;;;;;;5052142;28;21013;-48
2022/04/13 10:28:59;;;;;;;5.50;3.43;;;23.00;68.70;;;;;;5058432;28;20455;-48
2022/04/13 10:31:25;;;;;;;4.80;2.40;;;22.90;70.80;;;;;;5031879;28;20497;-48
2022/04/13 10:33:53;;;;;;;5.23;2.43;;;22.90;68.80;;;;;;5030940;28;21090;-50
2022/04/13 10:36:20;;;;;;;9.60;2.90;;;23.00;70.50;;;;;;5026492;28;21330;-48
2022/04/13 10:38:47;;;;;;;4.97;3.17;;;23.00;69.70;;;;;;5038666;28;21851;-50
2022/04/13 10:41:18;;;;;;;5.10;2.43;;;23.20;67.10;;;;;;5028463;28;20465;-49
2022/04/13 10:43:49;;;;;;;4.50;2.60;;;23.30;67.80;;;;;;5050302;28;20486;-50
2022/04/13 10:46:19;;;;;;;8.23;2.80;;;23.30;69.10;;;;;;5029854;28;20447;-49
2022/04/13 10:48:51;;;;;;;8.00;3.60;;;23.40;68.40;;;;;;5023822;28;20566;-49
2022/04/13 10:51:23;;;;;;;7.07;3.63;;;23.60;67.90;;;;;;5021623;28;20478;-47
2022/04/13 10:53:59;;;;;;;8.97;3.70;;;23.60;68.90;;;;;;5023455;28;20454;-48
2022/04/13 10:56:31;;;;;;;6.97;3.87;;;23.90;70.20;;;;;;5022221;28;20921;-48
2022/04/13 10:59:03;;;;;;;4.20;3.10;;;23.90;68.90;;;;;;5028075;28;20499;-48
2022/04/13 11:01:32;;;;;;;7.53;2.93;;;23.80;72.30;;;;;;5023142;28;20940;-49
2022/04/13 11:03:59;;;;;;;4.63;3.00;;;23.70;68.40;;;;;;5021895;28;20476;-48
2022/04/13 11:06:26;;;;;;;6.50;3.10;;;23.70;65.90;;;;;;5021447;28;20834;-49
2022/04/13 11:08:59;;;;;;;7.07;4.00;;;23.80;68.70;;;;;;5023057;28;20483;-48
2022/04/13 11:11:31;;;;;;;9.13;3.50;;;23.90;66.30;;;;;;5022928;28;20475;-49
2022/04/13 11:13:58;;;;;;;7.00;3.50;;;23.90;71.20;;;;;;5023114;28;20488;-48
2022/04/13 11:16:27;;;;;;;7.10;2.93;;;23.90;68.20;;;;;;5024269;28;20490;-52
2022/04/13 11:19:21;;;;;;;9.60;3.20;;;24.10;67.80;;;;;;5023317;28;20487;-49
2022/04/13 11:22:13;;;;;;;3.97;2.87;;;24.30;68.90;;;;;;5017157;28;20452;-48
2022/04/13 11:24:42;;;;;;;16.37;4.00;;;24.40;69.20;;;;;;5014558;28;20552;-48
2022/04/13 11:27:11;;;;;;;15.43;4.53;;;24.30;67.60;;;;;;5011622;28;20488;-48
2022/04/13 11:29:39;;;;;;;6.73;3.13;;;24.50;70.40;;;;;;5012579;28;20487;-48
2022/04/13 11:32:10;;;;;;;9.40;3.33;;;24.80;69.90;;;;;;5015818;28;20461;-48
2022/04/13 11:34:43;;;;;;;13.70;4.00;;;24.90;67.80;;;;;;5033584;28;20471;-49
2022/04/13 11:37:11;;;;;;;8.77;3.10;;;24.90;66.50;;;;;;5033745;28;20465;-48
2022/04/13 11:39:45;;;;;;;8.23;3.30;;;25.00;70.10;;;;;;5044368;28;20483;-48
2022/04/13 11:42:17;;;;;;;7.40;2.90;;;25.00;65.50;;;;;;5033484;28;20577;-48
2022/04/13 11:44:48;;;;;;;16.33;2.80;;;25.30;68.30;;;;;;5021628;28;20454;-49
2022/04/13 11:47:15;;;;;;;5.87;2.60;;;25.30;66.20;;;;;;5021481;28;20486;-48
2022/04/13 11:49:55;;;;;;;5.83;2.50;;;25.30;67.50;;;;;;5019606;28;20804;-50
2022/04/13 11:52:42;;;;;;;5.53;2.33;;;25.30;68.20;;;;;;5029139;28;20589;-48
2022/04/13 11:55:17;;;;;;;9.60;3.47;;;25.70;66.70;;;;;;5025673;28;20449;-48
2022/04/13 11:58:25;;;;;;;11.03;3.63;;;25.90;65.80;;;;;;5021337;28;20490;-48
2022/04/13 12:01:07;;;;;;;3.83;2.20;;;25.80;65.20;;;;;;5018170;28;20460;-49
2022/04/13 12:03:36;;;;;;;11.97;3.20;;;25.60;69.00;;;;;;5022950;28;20758;-49
2022/04/13 12:06:04;;;;;;;6.33;2.43;;;25.50;66.60;;;;;;5034299;28;20478;-49
2022/04/13 12:08:35;;;;;;;7.83;2.93;;;25.50;68.20;;;;;;5049653;28;20492;-49
2022/04/13 12:11:04;;;;;;;13.50;3.17;;;25.40;65.90;;;;;;5056233;28;20963;-49
2022/04/13 12:13:46;;;;;;;8.70;2.83;;;25.40;66.60;;;;;;5037396;28;20477;-50
2022/04/13 12:16:17;;;;;;;17.13;3.00;;;25.30;63.90;;;;;;5013087;28;20772;-48
2022/04/13 12:18:44;;;;;;;4.80;2.53;;;25.50;66.30;;;;;;5022590;28;20529;-48
2022/04/13 12:21:13;;;;;;;4.97;2.13;;;25.80;68.40;;;;;;5020753;28;20905;-48
2022/04/13 12:23:41;;;;;;;6.07;2.23;;;25.80;65.30;;;;;;5016045;28;20457;-49
2022/04/13 12:26:09;;;;;;;5.37;2.63;;;25.80;67.10;;;;;;5021772;28;20495;-49
2022/04/13 12:28:38;;;;;;;16.97;2.53;;;25.90;62.70;;;;;;5021139;28;20456;-50
2022/04/13 12:31:07;;;;;;;6.00;2.17;;;25.80;65.30;;;;;;5020317;28;20458;-49
2022/04/13 12:33:34;;;;;;;6.93;2.60;;;25.90;63.10;;;;;;5041003;28;20466;-49
2022/04/13 12:36:03;;;;;;;10.30;2.70;;;26.10;63.50;;;;;;5040554;28;20515;-48
2022/04/13 12:38:31;;;;;;;17.83;3.30;;;;;;;;;;5046836;28;20458;-48
2022/04/13 12:41:02;;;;;;;9.40;2.67;;;26.40;63.10;;;;;;5034118;28;20467;-49
2022/04/13 12:43:29;;;;;;;8.10;3.50;;;26.60;66.50;;;;;;5037571;28;20486;-48
2022/04/13 12:45:57;;;;;;;10.10;3.10;;;26.70;62.70;;;;;;5023257;28;20484;-48
2022/04/13 12:48:28;;;;;;;6.33;2.13;;;26.90;65.30;;;;;;5045952;28;20484;-48
2022/04/13 12:50:56;;;;;;;7.17;2.23;;;27.30;63.60;;;;;;5053149;28;20456;-48